Time;durP1;ratioP1;P1;durP2;ratioP2;P2;SDS_P1;SDS_P2;PMS_P1;PMS_P2;Temp;Humidity;BMP_temperature;BMP_pressure;BME280_temperature;BME280_humidity;BME280_pressure;Samples;Min_cycle;Max_cycle;Signal;HPM_P1;HPM_P2
2023/12/27 00:00:38;;;;;;;12.43;2.00;;;;;;;;;;5005443;28;20051;-60
2023/12/27 00:03:04;;;;;;;15.10;1.90;;;;;;;;;;5005167;28;20401;-60
2023/12/27 00:05:31;;;;;;;7.25;1.65;;;;;;;;;;5002377;28;20045;-60
2023/12/27 00:07:57;;;;;;;8.63;1.75;;;;;;;;;;5003758;28;20041;-60
2023/12/27 00:10:23;;;;;;;11.55;1.70;;;;;;;;;;5020225;28;20032;-60
2023/12/27 00:12:49;;;;;;;8.45;1.75;;;;;;;;;;5005011;28;20892;-60
2023/12/27 00:15:15;;;;;;;12.52;2.15;;;;;;;;;;5005607;28;20935;-60
2023/12/27 00:17:41;;;;;;;8.40;1.85;;;;;;;;;;5004713;28;20034;-60
2023/12/27 00:20:08;;;;;;;10.20;1.73;;;;;;;;;;5005287;28;20038;-60
2023/12/27 00:22:34;;;;;;;12.15;2.40;;;;;;;;;;5004573;28;20116;-60
2023/12/27 00:25:00;;;;;;;10.45;2.50;;;;;;;;;;5004791;28;20057;-60
2023/12/27 00:27:26;;;;;;;5.57;1.60;;;;;;;;;;5005323;28;20068;-60
2023/12/27 00:29:52;;;;;;;7.55;1.77;;;;;;;;;;5004266;28;20041;-66
2023/12/27 00:32:19;;;;;;;8.98;1.83;;;;;;;;;;5005659;28;20029;-67
2023/12/27 00:34:45;;;;;;;7.78;1.65;;;;;;;;;;5005124;28;20091;-66
2023/12/27 00:37:11;;;;;;;11.18;1.90;;;;;;;;;;5005494;28;20075;-67
2023/12/27 00:39:37;;;;;;;6.85;1.63;;;;;;;;;;5004639;28;20115;-66
2023/12/27 00:42:03;;;;;;;10.85;2.78;;;;;;;;;;5005154;28;20037;-66
2023/12/27 00:44:29;;;;;;;12.13;2.22;;;;;;;;;;5005641;28;20542;-66
2023/12/27 00:46:56;;;;;;;6.80;1.95;;;;;;;;;;5005438;28;20618;-67
2023/12/27 00:49:22;;;;;;;13.95;2.17;;;;;;;;;;5004567;28;20121;-66
2023/12/27 00:51:48;;;;;;;10.23;1.60;;;;;;;;;;5004803;28;20026;-66
2023/12/27 00:54:14;;;;;;;10.48;2.10;;;;;;;;;;5004955;28;20046;-66
2023/12/27 00:56:40;;;;;;;9.43;2.13;;;;;;;;;;5007902;28;20029;-66
2023/12/27 00:59:07;;;;;;;8.85;1.83;;;;;;;;;;5008526;28;20075;-66
2023/12/27 01:01:33;;;;;;;10.93;1.88;;;;;;;;;;5008660;28;20037;-66
2023/12/27 01:03:59;;;;;;;12.10;1.98;;;;;;;;;;5008808;28;20038;-66
2023/12/27 01:06:25;;;;;;;12.20;2.47;;;;;;;;;;5008366;28;20053;-67
2023/12/27 01:08:51;;;;;;;11.93;2.35;;;;;;;;;;5008474;28;20045;-66
2023/12/27 01:11:17;;;;;;;11.27;1.65;;;;;;;;;;5007961;28;20037;-67
2023/12/27 01:13:43;;;;;;;11.10;2.70;;;;;;;;;;5006777;28;20080;-66
2023/12/27 01:16:09;;;;;;;11.25;2.13;;;;;;;;;;5008579;28;20029;-66
2023/12/27 01:18:35;;;;;;;7.90;2.13;;;;;;;;;;5008281;28;20497;-67
2023/12/27 01:21:01;;;;;;;8.50;1.77;;;;;;;;;;5008159;28;21864;-66
2023/12/27 01:23:27;;;;;;;17.67;2.20;;;;;;;;;;5007606;28;20033;-66
2023/12/27 01:25:53;;;;;;;9.40;2.38;;;;;;;;;;5007716;28;20041;-66
2023/12/27 01:28:19;;;;;;;10.73;2.10;;;;;;;;;;5007705;28;20393;-66
2023/12/27 01:30:45;;;;;;;8.48;2.00;;;;;;;;;;5007242;28;20041;-66
2023/12/27 01:33:11;;;;;;;8.52;2.13;;;;;;;;;;5008378;28;20049;-66
2023/12/27 01:35:37;;;;;;;10.93;2.20;;;;;;;;;;5007517;28;20033;-67
2023/12/27 01:38:03;;;;;;;8.52;2.13;;;;;;;;;;5007860;28;20080;-66
2023/12/27 01:40:30;;;;;;;10.38;2.38;;;;;;;;;;5008330;28;20057;-66
2023/12/27 01:42:56;;;;;;;12.40;2.33;;;;;;;;;;5007711;28;20065;-66
2023/12/27 01:45:22;;;;;;;7.45;2.15;;;;;;;;;;5007696;28;20029;-66
2023/12/27 01:47:49;;;;;;;10.82;2.60;;;;;;;;;;5007224;28;20033;-66
2023/12/27 01:50:16;;;;;;;7.97;2.28;;;;;;;;;;5008089;28;20758;-67
2023/12/27 01:52:42;;;;;;;7.88;1.90;;;;;;;;;;5007548;28;20083;-66
2023/12/27 01:55:10;;;;;;;10.43;2.85;;;;;;;;;;5006854;28;20080;-67
2023/12/27 01:57:38;;;;;;;9.55;2.20;;;;;;;;;;5006365;28;20115;-66
2023/12/27 02:00:05;;;;;;;9.63;2.15;;;;;;;;;;5007889;28;20029;-67
2023/12/27 02:02:31;;;;;;;12.38;2.17;;;;;;;;;;5010016;28;20038;-66
2023/12/27 02:04:57;;;;;;;11.18;3.45;;;;;;;;;;5005640;28;20049;-68
2023/12/27 02:07:23;;;;;;;14.43;2.45;;;;;;;;;;5006923;28;20033;-67
2023/12/27 02:09:50;;;;;;;8.57;2.13;;;;;;;;;;5006985;28;20044;-66
2023/12/27 02:12:26;;;;;;;13.52;3.47;;;;;;;;;;5007035;28;20057;-67
2023/12/27 02:14:53;;;;;;;6.50;2.42;;;;;;;;;;5006960;28;20044;-67
2023/12/27 02:17:20;;;;;;;10.90;2.38;;;;;;;;;;5007440;28;20105;-66
2023/12/27 02:19:46;;;;;;;7.43;1.67;;;;;;;;;;5007065;28;21008;-66
2023/12/27 02:22:15;;;;;;;14.73;2.47;;;;;;;;;;5007700;28;20144;-66
2023/12/27 02:24:42;;;;;;;9.02;1.92;;;;;;;;;;5005781;28;20029;-67
2023/12/27 02:27:08;;;;;;;7.85;2.20;;;;;;;;;;5006810;28;20568;-66
2023/12/27 02:29:35;;;;;;;12.05;2.72;;;;;;;;;;5005916;28;20041;-67
2023/12/27 02:32:01;;;;;;;10.60;1.95;;;;;;;;;;5005007;28;20030;-66
2023/12/27 02:34:27;;;;;;;12.75;2.20;;;;;;;;;;5007164;28;20026;-66
2023/12/27 02:36:53;;;;;;;9.18;2.00;;;;;;;;;;5006619;28;21063;-67
2023/12/27 02:39:19;;;;;;;9.27;1.80;;;;;;;;;;5006589;28;20474;-66
2023/12/27 02:41:46;;;;;;;9.98;2.10;;;;;;;;;;5006354;28;20782;-67
2023/12/27 02:44:12;;;;;;;8.70;1.65;;;;;;;;;;5006074;28;20479;-66
2023/12/27 02:46:38;;;;;;;11.93;2.00;;;;;;;;;;5006192;28;20524;-67
2023/12/27 02:49:04;;;;;;;9.23;2.35;;;;;;;;;;5006291;28;20489;-67
2023/12/27 02:51:30;;;;;;;11.88;2.40;;;;;;;;;;5006279;28;20746;-66
2023/12/27 02:53:56;;;;;;;10.85;1.80;;;;;;;;;;5005731;28;20532;-67
2023/12/27 02:56:22;;;;;;;8.35;1.88;;;;;;;;;;5005849;28;20033;-67
2023/12/27 02:58:48;;;;;;;13.02;2.50;;;;;;;;;;5004032;28;20181;-67
2023/12/27 03:01:14;;;;;;;7.95;1.98;;;;;;;;;;5004989;28;21842;-67
2023/12/27 03:03:40;;;;;;;7.38;1.80;;;;;;;;;;5004446;28;20037;-66
2023/12/27 03:06:06;;;;;;;11.35;2.13;;;;;;;;;;5004996;28;20054;-66
2023/12/27 03:08:35;;;;;;;9.43;1.95;;;;;;;;;;5006162;28;20053;-66
2023/12/27 03:11:01;;;;;;;12.85;2.55;;;;;;;;;;5006065;28;20037;-67
2023/12/27 03:13:27;;;;;;;8.48;1.73;;;;;;;;;;5006498;28;20033;-66
2023/12/27 03:15:53;;;;;;;10.18;2.10;;;;;;;;;;5004971;28;20083;-66
2023/12/27 03:18:19;;;;;;;8.95;1.88;;;;;;;;;;5005409;28;20101;-66
2023/12/27 03:20:45;;;;;;;11.52;2.00;;;;;;;;;;5006074;28;20064;-66
2023/12/27 03:23:11;;;;;;;10.20;2.00;;;;;;;;;;5005382;28;21773;-66
2023/12/27 03:25:37;;;;;;;6.82;1.60;;;;;;;;;;5005702;28;20034;-66
2023/12/27 03:28:03;;;;;;;7.30;1.40;;;;;;;;;;5005187;28;20038;-66
2023/12/27 03:30:29;;;;;;;8.82;1.88;;;;;;;;;;5005986;28;20608;-66
2023/12/27 03:32:55;;;;;;;8.43;1.83;;;;;;;;;;5005862;28;20735;-66
2023/12/27 03:35:21;;;;;;;9.02;1.60;;;;;;;;;;5006037;28;20901;-66
2023/12/27 03:37:48;;;;;;;7.97;1.90;;;;;;;;;;5005622;28;21389;-66
2023/12/27 03:40:14;;;;;;;11.48;2.05;;;;;;;;;;5006298;28;20536;-66
2023/12/27 03:42:40;;;;;;;6.85;2.03;;;;;;;;;;5005554;28;20033;-67
2023/12/27 03:45:06;;;;;;;8.35;1.90;;;;;;;;;;5005858;28;20942;-66
2023/12/27 03:47:32;;;;;;;9.65;2.10;;;;;;;;;;5005287;28;20084;-66
2023/12/27 03:49:58;;;;;;;8.65;2.00;;;;;;;;;;5004526;28;20405;-66
2023/12/27 03:52:24;;;;;;;7.75;2.00;;;;;;;;;;5005878;28;20053;-66
2023/12/27 03:54:50;;;;;;;7.30;1.80;;;;;;;;;;5005181;28;20029;-66
2023/12/27 03:57:16;;;;;;;7.22;1.77;;;;;;;;;;5005782;28;21018;-66
2023/12/27 03:59:42;;;;;;;8.52;1.92;;;;;;;;;;5005611;28;20681;-66
2023/12/27 04:02:08;;;;;;;9.43;1.95;;;;;;;;;;5005694;28;20593;-66
2023/12/27 04:04:34;;;;;;;7.13;2.05;;;;;;;;;;5005216;28;20508;-66
2023/12/27 04:07:00;;;;;;;10.88;1.67;;;;;;;;;;5005554;28;20120;-67
2023/12/27 04:09:26;;;;;;;7.07;1.60;;;;;;;;;;5005286;28;20038;-66
2023/12/27 04:11:52;;;;;;;8.32;1.77;;;;;;;;;;5005518;28;20037;-67
2023/12/27 04:14:19;;;;;;;11.35;1.83;;;;;;;;;;5005614;28;20568;-66
2023/12/27 04:16:45;;;;;;;10.98;1.73;;;;;;;;;;5005549;28;20116;-66
2023/12/27 04:19:11;;;;;;;16.30;2.08;;;;;;;;;;5005351;28;20374;-66
2023/12/27 04:21:37;;;;;;;9.90;2.08;;;;;;;;;;5005183;28;20033;-66
2023/12/27 04:24:03;;;;;;;7.55;1.85;;;;;;;;;;5005394;28;20056;-66
2023/12/27 04:26:29;;;;;;;11.13;1.92;;;;;;;;;;5005661;28;20128;-66
2023/12/27 04:28:55;;;;;;;8.85;1.83;;;;;;;;;;5005634;28;20060;-66
2023/12/27 04:31:21;;;;;;;10.45;2.00;;;;;;;;;;5009512;28;20034;-66
2023/12/27 04:33:47;;;;;;;8.50;1.85;;;;;;;;;;5009333;28;20033;-66
2023/12/27 04:36:13;;;;;;;8.65;1.67;;;;;;;;;;5009172;28;20036;-66
2023/12/27 04:38:39;;;;;;;10.13;1.75;;;;;;;;;;5008897;28;20148;-67
2023/12/27 04:41:08;;;;;;;11.07;2.13;;;;;;;;;;5008230;28;20029;-66
2023/12/27 04:43:35;;;;;;;13.50;2.53;;;;;;;;;;5009203;28;20096;-66
2023/12/27 04:46:03;;;;;;;8.52;1.70;;;;;;;;;;5008896;28;20048;-66
2023/12/27 04:48:29;;;;;;;12.63;3.10;;;;;;;;;;5008465;28;20041;-66
2023/12/27 04:50:55;;;;;;;7.53;1.98;;;;;;;;;;5009245;28;20781;-66
2023/12/27 04:53:22;;;;;;;13.23;2.22;;;;;;;;;;5008701;28;20041;-66
2023/12/27 04:55:48;;;;;;;10.38;2.10;;;;;;;;;;5008841;28;20057;-66
2023/12/27 04:58:14;;;;;;;9.25;2.17;;;;;;;;;;5008614;28;20073;-66
2023/12/27 05:00:40;;;;;;;8.55;2.25;;;;;;;;;;5008375;28;20044;-66
2023/12/27 05:03:06;;;;;;;12.45;2.30;;;;;;;;;;5008382;28;20048;-66
2023/12/27 05:05:32;;;;;;;13.20;2.55;;;;;;;;;;5008546;28;20094;-66
2023/12/27 05:07:58;;;;;;;9.32;2.28;;;;;;;;;;5007744;28;20033;-66
2023/12/27 05:10:24;;;;;;;14.10;3.40;;;;;;;;;;5007752;28;20039;-66
2023/12/27 05:12:52;;;;;;;13.52;3.03;;;;;;;;;;5008974;28;20670;-67
2023/12/27 05:15:19;;;;;;;13.20;2.95;;;;;;;;;;5008686;28;20033;-67
2023/12/27 05:17:45;;;;;;;12.00;2.53;;;;;;;;;;5008603;28;20065;-66
2023/12/27 05:20:11;;;;;;;7.18;2.55;;;;;;;;;;5009019;28;20034;-66
2023/12/27 05:22:39;;;;;;;9.20;2.63;;;;;;;;;;5008209;28;20038;-66
2023/12/27 05:25:06;;;;;;;14.95;3.10;;;;;;;;;;5007828;28;20033;-66
2023/12/27 05:27:32;;;;;;;10.85;3.00;;;;;;;;;;5008139;28;20032;-66
2023/12/27 05:29:58;;;;;;;8.52;3.00;;;;;;;;;;5008439;28;20037;-66
2023/12/27 05:32:25;;;;;;;11.63;3.10;;;;;;;;;;5008265;28;20053;-66
2023/12/27 05:34:52;;;;;;;10.40;3.63;;;;;;;;;;5008169;28;20489;-66
2023/12/27 05:37:18;;;;;;;11.25;3.00;;;;;;;;;;5007932;28;20521;-66
2023/12/27 05:39:44;;;;;;;10.27;2.58;;;;;;;;;;5006961;28;20741;-66
2023/12/27 05:42:11;;;;;;;10.35;3.20;;;;;;;;;;5007702;28;20041;-66
2023/12/27 05:44:37;;;;;;;7.03;2.38;;;;;;;;;;5008225;28;20037;-66
2023/12/27 05:47:03;;;;;;;8.65;2.30;;;;;;;;;;5007712;28;20038;-67
2023/12/27 05:49:29;;;;;;;9.02;2.63;;;;;;;;;;5007859;28;20038;-66
2023/12/27 05:51:55;;;;;;;10.82;3.08;;;;;;;;;;5008357;28;20063;-66
2023/12/27 05:54:21;;;;;;;10.77;2.97;;;;;;;;;;5007624;28;20083;-66
2023/12/27 05:56:49;;;;;;;13.00;3.17;;;;;;;;;;5007360;28;20044;-66
2023/12/27 05:59:15;;;;;;;12.13;2.92;;;;;;;;;;5007711;28;20719;-66
2023/12/27 06:01:52;;;;;;;13.52;4.28;;;;;;;;;;5008140;28;20809;-66
2023/12/27 06:04:18;;;;;;;12.30;2.92;;;;;;;;;;5007220;28;20041;-66
2023/12/27 06:06:46;;;;;;;8.45;3.45;;;;;;;;;;5008154;28;20596;-66
2023/12/27 06:09:12;;;;;;;11.88;2.92;;;;;;;;;;5007068;28;20043;-66
2023/12/27 06:11:38;;;;;;;10.00;2.85;;;;;;;;;;5006871;28;20041;-66
2023/12/27 06:14:04;;;;;;;8.98;2.38;;;;;;;;;;5007450;28;20084;-66
2023/12/27 06:16:30;;;;;;;8.30;2.80;;;;;;;;;;5006818;28;20021;-66
2023/12/27 06:19:00;;;;;;;11.52;2.85;;;;;;;;;;5005851;28;20034;-66
2023/12/27 06:21:26;;;;;;;14.73;2.90;;;;;;;;;;5005886;28;21000;-66
2023/12/27 06:23:52;;;;;;;11.25;2.85;;;;;;;;;;5007386;28;20080;-66
2023/12/27 06:26:18;;;;;;;13.48;3.25;;;;;;;;;;5006332;28;20036;-66
2023/12/27 06:28:44;;;;;;;11.85;2.90;;;;;;;;;;5010587;28;20030;-66
2023/12/27 06:31:10;;;;;;;15.60;3.17;;;;;;;;;;5007073;28;20113;-66
2023/12/27 06:33:37;;;;;;;11.50;2.63;;;;;;;;;;5006277;28;20125;-66
2023/12/27 06:36:05;;;;;;;9.07;3.00;;;;;;;;;;5007219;28;20030;-66
2023/12/27 06:38:31;;;;;;;7.60;2.35;;;;;;;;;;5006398;28;20061;-66
2023/12/27 06:40:57;;;;;;;13.32;2.65;;;;;;;;;;5005539;28;20064;-66
2023/12/27 06:43:23;;;;;;;10.30;2.10;;;;;;;;;;5005445;28;21546;-66
2023/12/27 06:45:50;;;;;;;14.90;2.60;;;;;;;;;;5007098;28;20034;-66
2023/12/27 06:48:16;;;;;;;11.90;2.75;;;;;;;;;;5006479;28;20095;-66
2023/12/27 06:50:45;;;;;;;12.98;2.75;;;;;;;;;;5006102;28;20034;-66
2023/12/27 06:53:11;;;;;;;9.30;2.88;;;;;;;;;;5006028;28;20036;-66
2023/12/27 06:55:37;;;;;;;16.50;3.10;;;;;;;;;;5006071;28;20083;-66
2023/12/27 06:58:04;;;;;;;15.93;3.25;;;;;;;;;;5006590;28;20083;-66
2023/12/27 07:00:30;;;;;;;10.95;2.67;;;;;;;;;;5005791;28;20132;-66
2023/12/27 07:02:56;;;;;;;9.90;3.05;;;;;;;;;;5006594;28;20041;-67
2023/12/27 07:05:22;;;;;;;14.45;3.25;;;;;;;;;;5004601;28;20057;-66
2023/12/27 07:07:48;;;;;;;12.85;3.20;;;;;;;;;;5005910;28;20500;-66
2023/12/27 07:10:14;;;;;;;10.90;2.40;;;;;;;;;;5005774;28;20531;-66
2023/12/27 07:12:40;;;;;;;10.80;2.70;;;;;;;;;;5005794;28;20041;-66
2023/12/27 07:15:11;;;;;;;8.60;2.20;;;;;;;;;;5006157;28;20862;-66
2023/12/27 07:17:37;;;;;;;10.27;2.70;;;;;;;;;;5004753;28;20041;-66
2023/12/27 07:20:03;;;;;;;11.57;2.40;;;;;;;;;;5006254;28;20033;-66
2023/12/27 07:22:29;;;;;;;10.85;2.60;;;;;;;;;;5006190;28;20029;-66
2023/12/27 07:24:55;;;;;;;10.20;2.33;;;;;;;;;;5006209;28;20076;-66
2023/12/27 07:27:21;;;;;;;12.75;2.65;;;;;;;;;;5005688;28;20030;-66
2023/12/27 07:29:47;;;;;;;17.48;2.88;;;;;;;;;;5005855;28;20030;-66
2023/12/27 07:32:14;;;;;;;8.98;2.53;;;;;;;;;;5003603;28;20184;-66
2023/12/27 07:34:41;;;;;;;10.55;2.20;;;;;;;;;;5005562;28;20071;-66
2023/12/27 07:37:08;;;;;;;14.77;3.03;;;;;;;;;;5005471;28;20113;-66
2023/12/27 07:39:34;;;;;;;13.82;1.90;;;;;;;;;;5005926;28;20034;-66
2023/12/27 07:42:00;;;;;;;10.38;1.80;;;;;;;;;;5005306;28;20057;-66
2023/12/27 07:44:26;;;;;;;10.77;2.30;;;;;;;;;;5017117;28;20030;-66
2023/12/27 07:46:53;;;;;;;7.45;1.48;;;;;;;;;;5005046;28;20160;-66
2023/12/27 07:49:19;;;;;;;9.55;1.70;;;;;;;;;;5005827;28;20117;-66
2023/12/27 07:51:45;;;;;;;10.13;2.00;;;;;;;;;;5006019;28;20026;-66
2023/12/27 07:54:11;;;;;;;7.55;1.73;;;;;;;;;;5006038;28;20036;-66
2023/12/27 07:56:37;;;;;;;10.15;2.08;;;;;;;;;;5003710;28;20041;-66
2023/12/27 07:59:04;;;;;;;8.85;1.67;;;;;;;;;;5005624;28;20397;-66
2023/12/27 08:01:31;;;;;;;9.45;2.00;;;;;;;;;;5005766;28;20496;-66
2023/12/27 08:03:57;;;;;;;7.47;1.95;;;;;;;;;;5006455;28;20115;-66
2023/12/27 08:06:23;;;;;;;7.75;1.60;;;;;;;;;;5012480;28;20050;-66
2023/12/27 08:08:50;;;;;;;11.82;1.77;;;;;;;;;;4991576;28;20034;-66
2023/12/27 08:11:16;;;;;;;10.52;1.88;;;;;;;;;;4992331;28;20061;-66
2023/12/27 08:13:42;;;;;;;8.50;1.73;;;;;;;;;;4992268;28;20033;-66
2023/12/27 08:16:08;;;;;;;6.70;1.98;;;;;;;;;;4991217;28;20034;-66
2023/12/27 08:18:35;;;;;;;11.68;2.15;;;;;;;;;;4992206;28;20222;-66
2023/12/27 08:21:01;;;;;;;8.38;2.22;;;;;;;;;;5006058;28;21714;-66
2023/12/27 08:23:27;;;;;;;7.80;2.40;;;;;;;;;;4984932;28;20037;-66
2023/12/27 08:25:53;;;;;;;10.80;2.75;;;;;;;;;;4983410;28;21478;-66
2023/12/27 08:28:19;;;;;;;10.30;2.45;;;;;;;;;;4983501;28;20703;-66
2023/12/27 08:30:46;;;;;;;6.88;2.30;;;;;;;;;;4984730;28;20148;-66
2023/12/27 08:33:12;;;;;;;11.23;2.78;;;;;;;;;;4984843;28;20048;-66
2023/12/27 08:35:38;;;;;;;9.18;2.70;;;;;;;;;;4983993;28;20041;-66
2023/12/27 08:38:10;;;;;;;13.30;3.00;;;;;;;;;;4981470;28;20026;-66
2023/12/27 08:40:36;;;;;;;9.27;3.30;;;;;;;;;;4987161;28;20060;-66
2023/12/27 08:43:02;;;;;;;17.05;4.03;;;;;;;;;;4991008;28;20068;-67
2023/12/27 08:45:28;;;;;;;12.63;2.78;;;;;;;;;;4991179;28;20501;-66
2023/12/27 08:47:54;;;;;;;14.20;2.90;;;;;;;;;;4992089;28;20576;-66
2023/12/27 08:50:20;;;;;;;15.68;3.30;;;;;;;;;;4991335;28;20033;-66
2023/12/27 08:52:46;;;;;;;12.35;2.88;;;;;;;;;;4992156;28;20027;-66
2023/12/27 08:55:14;;;;;;;12.60;3.53;;;;;;;;;;4990605;28;20144;-66
2023/12/27 08:57:40;;;;;;;13.57;3.15;;;;;;;;;;4990865;28;20033;-66
2023/12/27 09:00:10;;;;;;;10.57;3.42;;;;;;;;;;4991132;28;20767;-66
2023/12/27 09:02:36;;;;;;;11.98;4.00;;;;;;;;;;4991330;28;20088;-66
2023/12/27 09:05:03;;;;;;;13.60;3.05;;;;;;;;;;4991375;28;20030;-65
2023/12/27 09:07:30;;;;;;;9.88;3.20;;;;;;;;;;4991651;28;20041;-66
2023/12/27 09:09:57;;;;;;;12.63;3.25;;;;;;;;;;4991260;28;20029;-66
2023/12/27 09:12:23;;;;;;;17.13;3.40;;;;;;;;;;4991885;28;20041;-66
2023/12/27 09:14:49;;;;;;;9.05;3.30;;;;;;;;;;4990880;28;20034;-66
2023/12/27 09:17:15;;;;;;;13.70;2.92;;;;;;;;;;4990328;28;20033;-66
2023/12/27 09:19:42;;;;;;;10.35;3.38;;;;;;;;;;5004108;28;20018;-66
2023/12/27 09:22:08;;;;;;;14.27;2.80;;;;;;;;;;4991573;28;20991;-66
2023/12/27 09:24:34;;;;;;;9.30;2.75;;;;;;;;;;4991058;28;20129;-66
2023/12/27 09:27:00;;;;;;;13.40;3.13;;;;;;;;;;4991916;28;20052;-66
2023/12/27 09:29:27;;;;;;;12.80;3.42;;;;;;;;;;4991189;28;20996;-66
2023/12/27 09:31:53;;;;;;;13.25;3.20;;;;;;;;;;4991338;28;20034;-66
2023/12/27 09:34:19;;;;;;;10.80;3.08;;;;;;;;;;4991332;28;20033;-66
2023/12/27 09:36:45;;;;;;;14.30;4.38;;;;;;;;;;4991395;28;20079;-66
2023/12/27 09:39:13;;;;;;;9.55;3.10;;;;;;;;;;4990943;28;20408;-66
2023/12/27 09:41:39;;;;;;;12.38;3.50;;;;;;;;;;4991284;28;20860;-65
2023/12/27 09:44:07;;;;;;;11.35;3.40;;;;;;;;;;4991034;28;20113;-66
2023/12/27 09:46:34;;;;;;;13.27;3.38;;;;;;;;;;4990662;28;20018;-66
2023/12/27 09:49:00;;;;;;;12.38;2.95;;;;;;;;;;4991700;28;20130;-66
2023/12/27 09:51:26;;;;;;;12.80;2.70;;;;;;;;;;4990764;28;20035;-66
2023/12/27 09:53:52;;;;;;;8.77;2.53;;;;;;;;;;4991215;28;20782;-66
2023/12/27 09:56:19;;;;;;;11.55;2.58;;;;;;;;;;4990790;28;20045;-66
2023/12/27 09:58:45;;;;;;;13.25;2.80;;;;;;;;;;4991696;28;20839;-66
2023/12/27 10:01:12;;;;;;;9.13;2.60;;;;;;;;;;4991408;28;20124;-66
2023/12/27 10:03:41;;;;;;;9.30;2.47;;;;;;;;;;4990273;28;20025;-66
2023/12/27 10:06:27;;;;;;;10.20;2.40;;;;;;;;;;5000776;28;20195;-65
2023/12/27 10:08:53;;;;;;;11.90;2.97;;;;;;;;;;5006645;28;20053;-65
2023/12/27 10:11:19;;;;;;;11.75;2.65;;;;;;;;;;5007919;28;20048;-66
2023/12/27 10:13:46;;;;;;;14.55;2.58;;;;;;;;;;5008027;28;20030;-65
2023/12/27 10:16:12;;;;;;;12.38;3.33;;;;;;;;;;5004656;28;20449;-65
2023/12/27 10:18:38;;;;;;;11.15;2.85;;;;;;;;;;5006179;28;20124;-65
2023/12/27 10:21:04;;;;;;;10.20;3.33;;;;;;;;;;5006170;28;20037;-66
2023/12/27 10:23:34;;;;;;;12.63;3.17;;;;;;;;;;5007565;28;20037;-65
2023/12/27 10:26:00;;;;;;;9.50;3.00;;;;;;;;;;5007650;28;20030;-65
2023/12/27 10:28:26;;;;;;;13.32;3.38;;;;;;;;;;5007038;28;20128;-65
2023/12/27 10:30:53;;;;;;;12.30;2.90;;;;;;;;;;5007635;28;20037;-65
2023/12/27 10:33:20;;;;;;;10.50;3.22;;;;;;;;;;5007541;28;20041;-66
2023/12/27 10:35:47;;;;;;;11.10;4.22;;;;;;;;;;5006946;28;20026;-65
2023/12/27 10:38:13;;;;;;;13.70;3.67;;;;;;;;;;5006274;28;20393;-66
2023/12/27 10:40:40;;;;;;;18.73;4.72;;;;;;;;;;5007224;28;20071;-65
2023/12/27 10:43:06;;;;;;;10.35;3.60;;;;;;;;;;5007172;28;20548;-65
2023/12/27 10:45:33;;;;;;;14.75;3.75;;;;;;;;;;5006831;28;20409;-65
2023/12/27 10:48:00;;;;;;;16.13;3.70;;;;;;;;;;5006992;28;20072;-65
2023/12/27 10:50:27;;;;;;;12.38;3.90;;;;;;;;;;5007081;28;20022;-66
2023/12/27 10:53:06;;;;;;;13.75;3.85;;;;;;;;;;5007447;28;20040;-65
2023/12/27 10:55:32;;;;;;;15.88;4.10;;;;;;;;;;5006280;28;20029;-65
2023/12/27 10:58:03;;;;;;;10.43;3.75;;;;;;;;;;5006851;28;20084;-65
2023/12/27 11:00:29;;;;;;;11.65;4.03;;;;;;;;;;5007044;28;20075;-65
2023/12/27 11:02:57;;;;;;;13.02;4.32;;;;;;;;;;5006577;28;20859;-65
2023/12/27 11:05:25;;;;;;;13.43;3.90;;;;;;;;;;5006342;28;20050;-65
2023/12/27 11:07:53;;;;;;;11.35;4.00;;;;;;;;;;5007601;28;20790;-65
2023/12/27 11:10:19;;;;;;;14.48;5.22;;;;;;;;;;5006962;28;20029;-65
2023/12/27 11:12:46;;;;;;;13.48;5.00;;;;;;;;;;5006946;28;20025;-65
2023/12/27 11:15:16;;;;;;;13.77;4.65;;;;;;;;;;5007281;28;20088;-65
2023/12/27 11:17:42;;;;;;;11.90;4.72;;;;;;;;;;5006670;28;20182;-65
2023/12/27 11:20:12;;;;;;;12.95;4.60;;;;;;;;;;5006199;28;20073;-65
2023/12/27 11:22:39;;;;;;;16.75;5.32;;;;;;;;;;5007093;28;20029;-65
2023/12/27 11:25:05;;;;;;;13.30;5.88;;;;;;;;;;5006255;28;20029;-65
2023/12/27 11:27:31;;;;;;;13.25;4.75;;;;;;;;;;5007300;28;20021;-65
2023/12/27 11:29:58;;;;;;;12.88;5.03;;;;;;;;;;5006168;28;20263;-65
2023/12/27 11:32:27;;;;;;;18.25;4.95;;;;;;;;;;5007763;28;20044;-65
2023/12/27 11:34:57;;;;;;;14.18;4.75;;;;;;;;;;5006682;28;20116;-65
2023/12/27 11:37:23;;;;;;;11.85;5.00;;;;;;;;;;5006176;28;20033;-65
2023/12/27 11:39:53;;;;;;;11.07;4.50;;;;;;;;;;5006409;28;20068;-65
2023/12/27 11:42:19;;;;;;;11.60;4.68;;;;;;;;;;5007483;28;20098;-65
2023/12/27 11:44:48;;;;;;;14.15;5.80;;;;;;;;;;5007531;28;20033;-64
2023/12/27 11:47:17;;;;;;;12.80;5.32;;;;;;;;;;5008699;28;20030;-64
2023/12/27 11:50:03;;;;;;;15.00;5.22;;;;;;;;;;5009551;28;20501;-64
2023/12/27 11:52:29;;;;;;;17.58;5.72;;;;;;;;;;5009059;28;20030;-64
2023/12/27 11:55:13;;;;;;;16.23;5.10;;;;;;;;;;5009668;28;20029;-64
2023/12/27 11:57:39;;;;;;;22.27;6.07;;;;;;;;;;5009906;28;20064;-64
2023/12/27 12:00:05;;;;;;;11.93;5.45;;;;;;;;;;5009585;28;20033;-64
2023/12/27 12:02:33;;;;;;;17.48;5.53;;;;;;;;;;5009415;28;20041;-63
2023/12/27 12:05:18;;;;;;;19.35;6.00;;;;;;;;;;5012091;28;20076;-63
2023/12/27 12:07:55;;;;;;;19.13;6.38;;;;;;;;;;5009829;28;20050;-64
2023/12/27 12:10:22;;;;;;;20.63;7.00;;;;;;;;;;5009924;28;20029;-63
2023/12/27 12:12:49;;;;;;;20.33;6.40;;;;;;;;;;5008102;28;20385;-63
2023/12/27 12:15:15;;;;;;;19.13;7.03;;;;;;;;;;5009649;28;20022;-63
2023/12/27 12:17:42;;;;;;;21.73;7.25;;;;;;;;;;5009005;28;20544;-64
2023/12/27 12:20:09;;;;;;;19.70;6.55;;;;;;;;;;5009854;28;20034;-64
2023/12/27 12:22:35;;;;;;;22.70;6.85;;;;;;;;;;5008748;28;20044;-64
2023/12/27 12:25:08;;;;;;;16.48;6.88;;;;;;;;;;5007950;28;20056;-64
2023/12/27 12:27:34;;;;;;;20.20;7.70;;;;;;;;;;5008144;28;20033;-64
2023/12/27 12:30:00;;;;;;;18.88;7.28;;;;;;;;;;4999624;28;20071;-63
2023/12/27 12:32:26;;;;;;;17.60;7.00;;;;;;;;;;5001122;28;21921;-63
2023/12/27 12:34:52;;;;;;;18.05;7.28;;;;;;;;;;5015726;28;20672;-63
2023/12/27 12:37:18;;;;;;;16.20;6.85;;;;;;;;;;5000937;28;20103;-63
2023/12/27 12:39:45;;;;;;;16.70;7.85;;;;;;;;;;5001016;28;20029;-63
2023/12/27 12:42:11;;;;;;;17.55;7.03;;;;;;;;;;4998203;28;20139;-64
2023/12/27 12:44:37;;;;;;;14.38;7.22;;;;;;;;;;4998707;28;20038;-63
2023/12/27 12:47:04;;;;;;;12.27;6.25;;;;;;;;;;4998657;28;20030;-63
2023/12/27 12:49:30;;;;;;;13.27;6.63;;;;;;;;;;4999144;28;20706;-63
2023/12/27 12:52:06;;;;;;;13.98;6.53;;;;;;;;;;5002363;28;20072;-63
2023/12/27 12:54:33;;;;;;;12.77;7.22;;;;;;;;;;5002682;28;21378;-63
2023/12/27 12:57:00;;;;;;;12.07;7.03;;;;;;;;;;5003231;28;20034;-63
2023/12/27 12:59:27;;;;;;;11.75;6.72;;;;;;;;;;5002727;28;20087;-63
2023/12/27 13:01:53;;;;;;;20.05;7.90;;;;;;;;;;5006660;28;20032;-63
2023/12/27 13:04:24;;;;;;;14.10;7.25;;;;;;;;;;5006895;28;20030;-63
2023/12/27 13:06:58;;;;;;;14.77;6.65;;;;;;;;;;5006184;28;20046;-63
2023/12/27 13:09:24;;;;;;;12.13;7.65;;;;;;;;;;5006476;28;20056;-63
2023/12/27 13:11:50;;;;;;;15.57;7.88;;;;;;;;;;5005705;28;20029;-63
2023/12/27 13:14:16;;;;;;;14.63;7.63;;;;;;;;;;5005957;28;20068;-63
2023/12/27 13:16:42;;;;;;;12.50;8.52;;;;;;;;;;5005624;28;20452;-63
2023/12/27 13:19:09;;;;;;;19.50;8.52;;;;;;;;;;5005391;28;20043;-63
2023/12/27 13:21:35;;;;;;;11.43;7.88;;;;;;;;;;5004890;28;20821;-63
2023/12/27 13:24:01;;;;;;;15.27;9.02;;;;;;;;;;5004208;28;20556;-63
2023/12/27 13:26:27;;;;;;;15.75;9.10;;;;;;;;;;5007374;28;20486;-63
2023/12/27 13:28:53;;;;;;;15.77;9.25;;;;;;;;;;5008681;28;20206;-64
2023/12/27 13:31:19;;;;;;;16.95;9.80;;;;;;;;;;5008518;28;20037;-64
2023/12/27 13:33:47;;;;;;;13.48;9.40;;;;;;;;;;5007756;28;20057;-63
2023/12/27 13:36:13;;;;;;;17.25;10.85;;;;;;;;;;5009137;28;20052;-63
2023/12/27 13:38:39;;;;;;;16.00;10.82;;;;;;;;;;5008651;28;20815;-63
2023/12/27 13:41:05;;;;;;;18.00;11.35;;;;;;;;;;5007575;28;20037;-63
2023/12/27 13:43:31;;;;;;;19.15;11.52;;;;;;;;;;5008302;28;20037;-63
2023/12/27 13:45:58;;;;;;;19.88;11.90;;;;;;;;;;5008551;28;20042;-63
2023/12/27 13:48:24;;;;;;;19.02;11.70;;;;;;;;;;5007920;28;21936;-63
2023/12/27 13:50:50;;;;;;;16.92;11.90;;;;;;;;;;5008729;28;20095;-63
2023/12/27 13:53:16;;;;;;;21.25;12.73;;;;;;;;;;5008074;28;20033;-64
2023/12/27 13:55:42;;;;;;;16.35;12.63;;;;;;;;;;5007926;28;20033;-63
2023/12/27 13:58:08;;;;;;;19.48;13.35;;;;;;;;;;5007806;28;20025;-64
2023/12/27 14:00:34;;;;;;;20.88;13.57;;;;;;;;;;5007240;28;20033;-63
2023/12/27 14:03:00;;;;;;;21.13;13.40;;;;;;;;;;5008241;28;20037;-63
2023/12/27 14:05:29;;;;;;;18.48;13.80;;;;;;;;;;5007589;28;20053;-63
2023/12/27 14:07:55;;;;;;;24.35;14.18;;;;;;;;;;5008119;28;20033;-63
2023/12/27 14:10:21;;;;;;;20.50;14.30;;;;;;;;;;5008320;28;20038;-63
2023/12/27 14:12:47;;;;;;;21.95;15.15;;;;;;;;;;5008482;28;20132;-63
2023/12/27 14:15:13;;;;;;;22.95;15.23;;;;;;;;;;5024175;28;20049;-63
2023/12/27 14:17:40;;;;;;;23.73;16.08;;;;;;;;;;5006685;28;20025;-63
2023/12/27 14:20:07;;;;;;;22.45;15.02;;;;;;;;;;5009544;28;20030;-63
2023/12/27 14:22:33;;;;;;;22.52;15.75;;;;;;;;;;5007993;28;20034;-63
2023/12/27 14:25:00;;;;;;;21.23;15.88;;;;;;;;;;5007416;28;20370;-63
2023/12/27 14:27:27;;;;;;;24.67;17.13;;;;;;;;;;5007292;28;20030;-63
2023/12/27 14:29:53;;;;;;;23.92;16.58;;;;;;;;;;5006608;28;20083;-63